createdAt,value
2023-01-07T00:03:36.885Z,10.48
2023-01-07T00:06:07.283Z,9.77
2023-01-07T00:08:37.191Z,10.43
2023-01-07T00:11:11.412Z,10.75
2023-01-07T00:13:38.850Z,11.10
2023-01-07T00:16:10.919Z,11.52
2023-01-07T00:18:38.380Z,10.80
2023-01-07T00:21:07.655Z,9.63
2023-01-07T00:23:36.026Z,11.90
2023-01-07T00:26:08.827Z,11.18
2023-01-07T00:28:38.353Z,10.82
2023-01-07T00:31:10.801Z,9.60
2023-01-07T00:33:47.134Z,11.27
2023-01-07T00:36:13.874Z,9.93
2023-01-07T00:38:40.924Z,9.45
2023-01-07T00:41:07.712Z,9.93
2023-01-07T00:43:34.564Z,9.82
2023-01-07T00:46:01.457Z,9.65
2023-01-07T00:48:28.352Z,9.13
2023-01-07T00:50:55.595Z,10.43
2023-01-07T00:53:22.847Z,9.98
2023-01-07T00:55:50.651Z,10.02
2023-01-07T00:58:23.811Z,10.73
2023-01-07T01:00:55.358Z,9.63
2023-01-07T01:03:23.232Z,10.43
2023-01-07T01:05:50.912Z,11.00
2023-01-07T01:08:21.392Z,11.68
2023-01-07T01:10:48.288Z,10.98
2023-01-07T01:13:18.287Z,10.50
2023-01-07T01:18:13.882Z,10.57
2023-01-07T01:20:40.764Z,9.60
2023-01-07T01:23:08.432Z,10.07
2023-01-07T01:25:35.287Z,9.88
2023-01-07T01:28:02.141Z,9.80
2023-01-07T01:30:28.930Z,8.43
2023-01-07T01:32:55.705Z,8.98
2023-01-07T01:35:22.510Z,9.48
2023-01-07T01:37:51.264Z,9.75
2023-01-07T01:40:18.684Z,10.18
2023-01-07T01:42:45.480Z,12.63
2023-01-07T01:45:12.833Z,9.98
2023-01-07T01:48:02.768Z,10.02
2023-01-07T01:50:44.159Z,9.20
2023-01-07T01:53:20.100Z,9.05
2023-01-07T01:56:09.416Z,8.15
2023-01-07T01:58:39.270Z,8.40
2023-01-07T02:01:06.197Z,9.45
2023-01-07T02:03:36.741Z,8.75
2023-01-07T02:06:04.703Z,9.30
2023-01-07T02:08:32.071Z,9.10
2023-01-07T02:11:22.001Z,9.13
2023-01-07T02:13:57.856Z,9.23
2023-01-07T02:16:33.497Z,8.75
2023-01-07T02:19:35.680Z,8.63
2023-01-07T02:22:37.710Z,7.93
2023-01-07T02:25:45.047Z,8.25
2023-01-07T02:28:38.143Z,8.35
2023-01-07T02:31:41.961Z,8.00
2023-01-07T02:34:30.551Z,7.65
2023-01-07T02:37:27.971Z,8.35
2023-01-07T02:40:00.857Z,8.85
2023-01-07T02:42:44.613Z,8.35
2023-01-07T02:45:23.824Z,9.10
2023-01-07T02:48:13.646Z,9.27
2023-01-07T02:50:40.437Z,8.90
2023-01-07T02:53:09.598Z,9.48
2023-01-07T02:55:41.305Z,9.23
2023-01-07T02:58:36.842Z,8.23
2023-01-07T03:01:36.103Z,8.20
2023-01-07T03:04:30.278Z,8.80
2023-01-07T03:07:24.623Z,9.50
2023-01-07T03:10:05.908Z,9.95
2023-01-07T03:12:43.124Z,10.38
2023-01-07T03:15:29.138Z,10.35
2023-01-07T03:18:04.660Z,9.98
2023-01-07T03:20:36.137Z,9.35
2023-01-07T03:23:08.176Z,10.65
2023-01-07T03:25:39.735Z,9.77
2023-01-07T03:28:09.019Z,12.18
2023-01-07T03:30:37.753Z,11.82
2023-01-07T03:33:13.596Z,11.23
2023-01-07T03:35:44.922Z,10.32
2023-01-07T03:38:13.427Z,10.15
2023-01-07T03:40:40.271Z,10.32
2023-01-07T03:43:13.578Z,10.20
2023-01-07T03:45:41.120Z,10.23
2023-01-07T03:48:08.099Z,10.63
2023-01-07T03:50:34.995Z,9.63
2023-01-07T03:53:01.869Z,10.93
2023-01-07T03:55:28.661Z,9.73
2023-01-07T03:57:57.039Z,9.55
2023-01-07T04:00:24.178Z,10.10
2023-01-07T04:02:51.280Z,9.98
2023-01-07T04:05:18.183Z,10.23
2023-01-07T04:07:45.121Z,11.73
2023-01-07T04:10:11.928Z,10.02
2023-01-07T04:12:38.857Z,9.45
2023-01-07T04:15:06.574Z,9.90
2023-01-07T04:17:33.571Z,10.43
2023-01-07T04:20:00.435Z,10.05
2023-01-07T04:22:27.294Z,10.57
2023-01-07T04:24:54.166Z,9.77
2023-01-07T04:27:20.964Z,10.48
2023-01-07T04:29:47.941Z,9.77
2023-01-07T04:32:14.691Z,10.50
2023-01-07T04:34:41.474Z,10.00
2023-01-07T04:37:08.343Z,9.43
2023-01-07T04:39:35.170Z,9.70
2023-01-07T04:42:02.012Z,10.57
2023-01-07T04:44:28.768Z,11.02
2023-01-07T04:46:55.557Z,11.15
2023-01-07T04:49:22.470Z,10.88
2023-01-07T04:51:49.259Z,11.23
2023-01-07T04:54:16.165Z,10.88
2023-01-07T04:56:42.957Z,10.10
2023-01-07T04:59:09.872Z,10.27
2023-01-07T05:01:36.911Z,10.18
2023-01-07T05:04:04.163Z,10.15
2023-01-07T05:06:31.035Z,10.75
2023-01-07T05:08:58.126Z,11.15
2023-01-07T05:11:24.886Z,9.63
2023-01-07T05:13:52.426Z,9.52
2023-01-07T05:16:19.309Z,9.15
2023-01-07T05:18:46.239Z,8.93
2023-01-07T05:21:13.108Z,8.88
2023-01-07T05:23:40.088Z,10.88
2023-01-07T05:26:07.415Z,10.27
2023-01-07T05:28:34.569Z,10.05
2023-01-07T05:31:01.675Z,9.88
2023-01-07T05:35:59.067Z,10.35
2023-01-07T05:38:25.873Z,10.07
2023-01-07T05:40:52.775Z,10.07
2023-01-07T05:43:19.619Z,9.50
2023-01-07T05:45:46.648Z,9.18
2023-01-07T05:48:14.635Z,9.70
2023-01-07T05:50:41.926Z,10.45
2023-01-07T05:53:08.679Z,9.23
2023-01-07T05:55:38.281Z,9.70
2023-01-07T05:58:06.223Z,9.10
2023-01-07T06:00:33.593Z,9.93
2023-01-07T06:03:00.531Z,8.98
2023-01-07T06:05:27.291Z,9.45
2023-01-07T06:07:54.157Z,8.48
2023-01-07T06:10:21.697Z,9.40
2023-01-07T06:12:48.419Z,9.68
2023-01-07T06:15:15.227Z,8.98
2023-01-07T06:17:41.925Z,9.65
2023-01-07T06:20:09.459Z,8.68
2023-01-07T06:22:36.622Z,8.68
2023-01-07T06:25:04.082Z,9.45
2023-01-07T06:27:31.062Z,10.27
2023-01-07T06:29:57.746Z,10.48
2023-01-07T06:32:24.603Z,9.95
2023-01-07T06:34:51.348Z,9.52
2023-01-07T06:37:18.273Z,9.93
2023-01-07T06:39:45.053Z,10.23
2023-01-07T06:42:11.870Z,9.15
2023-01-07T06:44:38.933Z,9.57
2023-01-07T06:47:05.666Z,9.60
2023-01-07T06:49:32.348Z,9.65
2023-01-07T06:51:59.214Z,9.80
2023-01-07T06:54:25.983Z,8.77
2023-01-07T06:56:52.717Z,10.30
2023-01-07T06:59:19.503Z,9.80
2023-01-07T07:01:46.764Z,10.93
2023-01-07T07:04:13.919Z,10.85
2023-01-07T07:06:40.620Z,10.82
2023-01-07T07:09:07.461Z,9.30
2023-01-07T07:11:34.304Z,10.85
2023-01-07T07:14:01.040Z,9.57
2023-01-07T07:16:27.801Z,10.38
2023-01-07T07:18:54.630Z,10.95
2023-01-07T07:21:21.679Z,10.65
2023-01-07T07:23:48.434Z,10.27
2023-01-07T07:26:15.200Z,10.10
2023-01-07T07:28:43.052Z,10.18
2023-01-07T07:31:10.091Z,10.13
2023-01-07T07:33:37.119Z,10.75
2023-01-07T07:36:04.843Z,9.48
2023-01-07T07:38:31.606Z,9.50
2023-01-07T07:40:58.441Z,10.38
2023-01-07T07:43:25.187Z,10.25
2023-01-07T07:45:51.954Z,11.13
2023-01-07T07:48:18.627Z,9.77
2023-01-07T07:50:45.362Z,9.70
2023-01-07T07:53:12.126Z,8.82
2023-01-07T07:55:39.869Z,10.15
2023-01-07T07:58:07.022Z,10.40
2023-01-07T08:00:33.734Z,9.90
2023-01-07T08:03:01.508Z,9.10
2023-01-07T08:05:29.094Z,8.52
2023-01-07T08:07:56.404Z,8.80
2023-01-07T08:10:24.137Z,9.75
2023-01-07T08:12:50.950Z,9.68
2023-01-07T08:15:18.239Z,9.25
2023-01-07T08:17:45.011Z,10.60
2023-01-07T08:20:12.542Z,12.73
2023-01-07T08:22:39.471Z,12.43
2023-01-07T08:25:06.683Z,11.00
2023-01-07T08:27:33.489Z,9.93
2023-01-07T08:30:00.215Z,10.95
2023-01-07T08:32:27.087Z,10.43
2023-01-07T08:34:53.944Z,10.07
2023-01-07T08:37:20.775Z,10.68
2023-01-07T08:39:47.518Z,11.07
2023-01-07T08:42:14.278Z,10.95
2023-01-07T08:44:41.092Z,10.45
2023-01-07T08:47:08.068Z,10.40
2023-01-07T08:49:34.805Z,9.20
2023-01-07T08:52:01.587Z,11.00
2023-01-07T08:54:28.648Z,10.38
2023-01-07T08:56:55.464Z,10.00
2023-01-07T08:59:22.359Z,9.55
2023-01-07T09:01:49.346Z,9.80
2023-01-07T09:04:16.325Z,9.43
2023-01-07T09:06:43.109Z,8.68
2023-01-07T09:09:10.605Z,9.18
2023-01-07T09:11:37.997Z,9.40
2023-01-07T09:14:04.751Z,8.10
2023-01-07T09:16:31.622Z,9.13
2023-01-07T09:18:58.377Z,9.35
2023-01-07T09:21:25.131Z,10.02
2023-01-07T09:23:51.896Z,10.57
2023-01-07T09:26:18.681Z,11.00
2023-01-07T09:28:45.455Z,10.48
2023-01-07T09:31:12.487Z,19.40
2023-01-07T09:33:40.956Z,9.48
2023-01-07T09:36:07.974Z,9.02
2023-01-07T09:38:34.928Z,9.32
2023-01-07T09:41:01.912Z,9.27
2023-01-07T09:44:00.685Z,9.00
2023-01-07T09:46:29.611Z,8.95
2023-01-07T09:49:02.236Z,7.53
2023-01-07T09:51:43.931Z,7.25
2023-01-07T09:54:34.712Z,6.50
2023-01-07T09:57:02.097Z,6.13
2023-01-07T09:59:28.947Z,6.82
2023-01-07T10:01:58.271Z,4.72
2023-01-07T10:04:38.753Z,2.80
2023-01-07T10:07:20.323Z,1.45
2023-01-07T10:10:36.602Z,0.90
2023-01-07T10:13:25.469Z,2.30
2023-01-07T10:16:09.645Z,1.00
2023-01-07T10:18:50.358Z,0.70
2023-01-07T10:21:24.585Z,0.82
2023-01-07T10:24:21.606Z,1.10
2023-01-07T10:26:53.439Z,1.00
2023-01-07T10:29:22.788Z,1.30
2023-01-07T10:31:52.002Z,1.10
2023-01-07T10:34:25.158Z,1.10
2023-01-07T10:37:14.299Z,1.42
2023-01-07T10:40:30.744Z,1.50
2023-01-07T10:43:25.472Z,1.42
2023-01-07T10:46:21.662Z,1.40
2023-01-07T10:49:26.752Z,1.08
2023-01-07T10:52:09.119Z,1.30
2023-01-07T10:54:57.322Z,1.30
2023-01-07T10:57:28.296Z,1.70
2023-01-07T10:59:59.151Z,1.50
2023-01-07T11:02:27.786Z,1.60
2023-01-07T11:04:59.850Z,1.75
2023-01-07T11:07:44.929Z,1.70
2023-01-07T11:10:17.986Z,1.60
2023-01-07T11:12:57.622Z,1.70
2023-01-07T11:15:47.182Z,1.40
2023-01-07T11:18:21.718Z,1.10
2023-01-07T11:20:51.258Z,0.90
2023-01-07T11:23:43.731Z,1.15
2023-01-07T11:26:32.375Z,1.00
2023-01-07T11:29:13.867Z,1.00
2023-01-07T11:31:54.657Z,1.25
2023-01-07T11:34:47.164Z,3.03
2023-01-07T11:37:34.934Z,1.08
2023-01-07T11:40:14.037Z,1.10
2023-01-07T11:43:04.095Z,1.03
2023-01-07T11:48:15.480Z,1.42
2023-01-07T11:50:44.610Z,1.17
2023-01-07T11:53:14.154Z,1.10
2023-01-07T11:55:56.229Z,1.20
2023-01-07T11:58:28.141Z,1.00
2023-01-07T12:01:08.169Z,1.33
2023-01-07T12:03:56.112Z,1.20
2023-01-07T12:06:29.109Z,1.30
2023-01-07T12:09:13.963Z,1.35
2023-01-07T12:11:43.175Z,1.10
2023-01-07T12:14:23.923Z,1.00
2023-01-07T12:16:52.014Z,1.10
2023-01-07T12:19:42.014Z,1.10
2023-01-07T12:22:33.807Z,1.38
2023-01-07T12:25:15.821Z,1.33
2023-01-07T12:27:48.813Z,1.30
2023-01-07T12:30:54.797Z,1.25
2023-01-07T12:33:45.069Z,1.10
2023-01-07T12:36:28.572Z,0.90
2023-01-07T12:39:01.124Z,1.00
2023-01-07T12:41:33.603Z,1.10
2023-01-07T12:44:12.756Z,1.20
2023-01-07T12:46:44.458Z,1.00
2023-01-07T12:49:16.408Z,1.08
2023-01-07T12:51:51.789Z,1.10
2023-01-07T12:54:30.334Z,1.00
2023-01-07T12:57:01.660Z,0.90
2023-01-07T12:59:45.614Z,1.00
2023-01-07T13:02:39.401Z,1.00
2023-01-07T13:05:20.278Z,1.05
2023-01-07T13:07:52.711Z,1.00
2023-01-07T13:10:35.715Z,1.00
2023-01-07T13:13:12.912Z,1.00
2023-01-07T13:15:41.572Z,0.95
2023-01-07T13:18:19.798Z,1.00
2023-01-07T13:21:02.883Z,1.13
2023-01-07T13:24:00.630Z,1.20
2023-01-07T13:26:45.303Z,1.27
2023-01-07T13:29:19.831Z,1.02
2023-01-07T13:32:01.793Z,1.00
2023-01-07T13:34:42.090Z,1.20
2023-01-07T13:37:35.676Z,1.50
2023-01-07T13:40:11.575Z,1.38
2023-01-07T13:42:56.982Z,1.08
2023-01-07T13:45:29.040Z,1.30
2023-01-07T13:48:03.221Z,1.00
2023-01-07T13:50:41.995Z,1.00
2023-01-07T13:53:14.988Z,1.02
2023-01-07T13:55:48.429Z,0.95
2023-01-07T13:58:35.128Z,0.93
2023-01-07T14:01:28.059Z,1.10
2023-01-07T14:04:02.626Z,1.00
2023-01-07T14:06:29.280Z,1.13
2023-01-07T14:09:00.145Z,1.30
2023-01-07T14:11:29.656Z,4.30
2023-01-07T14:14:12.994Z,2.33
2023-01-07T14:17:06.971Z,1.80
2023-01-07T14:19:55.251Z,1.30
2023-01-07T14:22:48.703Z,1.10
2023-01-07T14:25:24.763Z,1.13
2023-01-07T14:28:13.377Z,1.15
2023-01-07T14:30:48.525Z,1.23
2023-01-07T14:33:22.725Z,1.27
2023-01-07T14:35:54.341Z,1.00
2023-01-07T14:38:27.108Z,0.93
2023-01-07T14:41:03.359Z,0.80
2023-01-07T14:43:51.767Z,0.80
2023-01-07T14:46:24.417Z,0.80
2023-01-07T14:49:03.443Z,0.95
2023-01-07T14:52:00.796Z,1.27
2023-01-07T14:54:28.335Z,1.20
2023-01-07T14:57:01.151Z,1.00
2023-01-07T14:59:49.457Z,0.85
2023-01-07T15:02:25.214Z,1.02
2023-01-07T15:05:26.141Z,1.10
2023-01-07T15:08:19.830Z,1.20
2023-01-07T15:11:09.232Z,1.13
2023-01-07T15:14:02.696Z,1.10
2023-01-07T15:16:33.191Z,1.08
2023-01-07T15:19:00.620Z,1.38
2023-01-07T15:21:52.491Z,1.00
2023-01-07T15:24:56.792Z,1.40
2023-01-07T15:27:38.254Z,1.20
2023-01-07T15:30:11.071Z,1.35
2023-01-07T15:32:51.639Z,1.35
2023-01-07T15:35:26.253Z,1.42
2023-01-07T15:37:53.096Z,1.35
2023-01-07T15:40:23.628Z,1.40
2023-01-07T15:42:52.642Z,1.30
2023-01-07T15:45:27.080Z,1.42
2023-01-07T15:48:06.027Z,1.50
2023-01-07T15:50:34.941Z,1.98
2023-01-07T15:53:16.971Z,2.40
2023-01-07T15:55:52.040Z,2.20
2023-01-07T15:58:30.082Z,2.10
2023-01-07T16:01:00.271Z,2.17
2023-01-07T16:03:28.106Z,1.85
2023-01-07T16:05:56.358Z,2.03
2023-01-07T16:08:30.369Z,1.90
2023-01-07T16:11:05.679Z,2.15
2023-01-07T16:13:33.217Z,2.30
2023-01-07T16:16:03.451Z,2.42
2023-01-07T16:18:34.889Z,2.58
2023-01-07T16:21:14.240Z,2.60
2023-01-07T16:23:41.606Z,3.05
2023-01-07T16:26:23.308Z,3.47
2023-01-07T16:28:55.640Z,3.72
2023-01-07T16:31:25.680Z,4.15
2023-01-07T16:36:23.666Z,4.25
2023-01-07T16:38:54.201Z,3.53
2023-01-07T16:41:23.803Z,3.92
2023-01-07T16:43:57.854Z,3.78
2023-01-07T16:46:24.807Z,4.38
2023-01-07T16:49:28.548Z,4.68
2023-01-07T16:52:14.480Z,4.10
2023-01-07T16:54:46.476Z,4.50
2023-01-07T16:57:14.117Z,4.55
2023-01-07T16:59:53.777Z,3.45
2023-01-07T17:02:29.677Z,3.90
2023-01-07T17:05:20.227Z,4.47
2023-01-07T17:07:50.073Z,3.53
2023-01-07T17:10:27.673Z,3.97
2023-01-07T17:13:06.217Z,3.58
2023-01-07T17:15:34.817Z,3.63
2023-01-07T17:18:13.392Z,3.75
2023-01-07T17:20:53.636Z,3.63
2023-01-07T17:25:55.020Z,3.70
2023-01-07T17:28:25.226Z,3.83
2023-01-07T17:30:52.749Z,2.88
2023-01-07T17:33:24.993Z,3.78
2023-01-07T17:35:54.812Z,3.70
2023-01-07T17:38:21.727Z,3.38
2023-01-07T17:40:50.436Z,3.40
2023-01-07T17:43:38.056Z,3.37
2023-01-07T17:46:07.848Z,3.05
2023-01-07T17:48:35.774Z,3.40
2023-01-07T17:51:04.665Z,3.70
2023-01-07T17:53:39.186Z,3.70
2023-01-07T17:56:06.300Z,4.25
2023-01-07T17:58:35.749Z,3.90
2023-01-07T18:01:17.577Z,3.90
2023-01-07T18:03:47.701Z,4.03
2023-01-07T18:06:25.075Z,4.03
2023-01-07T18:08:52.785Z,4.20
2023-01-07T18:11:45.275Z,3.63
2023-01-07T18:14:17.125Z,3.47
2023-01-07T18:16:43.925Z,3.72
2023-01-07T18:19:13.418Z,3.35
2023-01-07T18:21:40.593Z,4.00
2023-01-07T18:24:07.849Z,3.55
2023-01-07T18:26:34.672Z,3.90
2023-01-07T18:29:01.461Z,3.05
2023-01-07T18:31:28.337Z,3.33
2023-01-07T18:33:55.244Z,3.53
2023-01-07T18:36:22.081Z,3.25
2023-01-07T18:38:49.785Z,3.72
2023-01-07T18:41:16.657Z,3.75
2023-01-07T18:43:43.385Z,4.18
2023-01-07T18:46:10.231Z,3.60
2023-01-07T18:48:37.427Z,4.03
2023-01-07T18:51:12.058Z,3.53
2023-01-07T18:53:39.893Z,3.67
2023-01-07T18:56:11.656Z,3.85
2023-01-07T18:58:39.849Z,4.05
2023-01-07T19:01:07.934Z,3.55
2023-01-07T19:03:35.567Z,4.15
2023-01-07T19:06:10.622Z,4.10
2023-01-07T19:08:38.756Z,4.07
2023-01-07T19:11:14.420Z,3.88
2023-01-07T19:13:41.958Z,4.18
2023-01-07T19:16:10.398Z,3.25
2023-01-07T19:18:37.916Z,4.43
2023-01-07T19:21:06.696Z,4.75
2023-01-07T19:23:33.747Z,3.65
2023-01-07T19:26:02.752Z,4.18
2023-01-07T19:28:29.907Z,3.92
2023-01-07T19:30:56.664Z,4.45
2023-01-07T19:33:23.546Z,4.28
2023-01-07T19:35:51.006Z,4.50
2023-01-07T19:38:17.959Z,4.07
2023-01-07T19:40:45.726Z,4.20
2023-01-07T19:43:13.263Z,4.18
2023-01-07T19:45:40.836Z,4.55
2023-01-07T19:48:07.813Z,4.40
2023-01-07T19:50:34.589Z,4.53
2023-01-07T19:53:01.347Z,4.78
2023-01-07T19:55:28.169Z,4.55
2023-01-07T19:57:55.954Z,5.22
2023-01-07T20:00:23.065Z,4.93
2023-01-07T20:02:50.170Z,5.47
2023-01-07T20:05:17.021Z,5.07
2023-01-07T20:07:43.794Z,5.50
2023-01-07T20:10:11.683Z,5.88
2023-01-07T20:12:38.386Z,5.63
2023-01-07T20:15:05.977Z,6.15
2023-01-07T20:17:33.447Z,4.88
2023-01-07T20:20:00.216Z,5.43
2023-01-07T20:22:26.993Z,6.10
2023-01-07T20:24:53.795Z,5.22
2023-01-07T20:27:20.609Z,5.85
2023-01-07T20:29:47.333Z,6.20
2023-01-07T20:32:14.177Z,6.28
2023-01-07T20:34:40.960Z,5.63
2023-01-07T20:37:07.725Z,5.13
2023-01-07T20:39:34.490Z,5.57
2023-01-07T20:42:01.258Z,6.22
2023-01-07T20:44:27.972Z,5.50
2023-01-07T20:46:54.689Z,5.40
2023-01-07T20:49:24.321Z,5.47
2023-01-07T20:51:51.161Z,6.05
2023-01-07T20:54:17.988Z,6.22
2023-01-07T20:56:45.483Z,6.32
2023-01-07T20:59:14.269Z,6.35
2023-01-07T21:01:41.245Z,7.18
2023-01-07T21:04:08.176Z,6.72
2023-01-07T21:06:34.977Z,6.93
2023-01-07T21:09:01.715Z,7.50
2023-01-07T21:11:28.555Z,6.95
2023-01-07T21:13:56.552Z,6.68
2023-01-07T21:16:25.527Z,7.30
2023-01-07T21:18:52.383Z,8.02
2023-01-07T21:21:23.867Z,7.65
2023-01-07T21:23:51.362Z,7.80
2023-01-07T21:26:18.386Z,6.85
2023-01-07T21:28:45.968Z,7.95
2023-01-07T21:31:15.591Z,8.18
2023-01-07T21:33:42.976Z,7.97
2023-01-07T21:36:11.970Z,7.70
2023-01-07T21:38:38.890Z,7.75
2023-01-07T21:41:11.343Z,8.10
2023-01-07T21:43:38.493Z,7.82
2023-01-07T21:46:06.470Z,8.93
2023-01-07T21:48:37.193Z,12.02
2023-01-07T21:51:05.994Z,16.38
2023-01-07T21:53:34.759Z,15.90
2023-01-07T21:56:10.623Z,15.32
2023-01-07T21:58:38.485Z,14.15
2023-01-07T22:01:06.049Z,13.55
2023-01-07T22:03:34.083Z,14.27
2023-01-07T22:06:03.859Z,12.82
2023-01-07T22:08:30.698Z,14.55
2023-01-07T22:10:57.507Z,13.65
2023-01-07T22:13:24.403Z,13.27
2023-01-07T22:15:51.236Z,11.13
2023-01-07T22:18:18.067Z,10.13
2023-01-07T22:20:44.854Z,11.65
2023-01-07T22:23:19.335Z,11.88
2023-01-07T22:25:46.068Z,10.93
2023-01-07T22:28:16.270Z,10.23
2023-01-07T22:33:11.378Z,9.55
2023-01-07T22:35:38.222Z,14.90
2023-01-07T22:38:05.315Z,14.88
2023-01-07T22:40:36.765Z,10.88
2023-01-07T22:43:06.846Z,10.57
2023-01-07T22:45:42.554Z,10.20
2023-01-07T22:48:13.110Z,9.25
2023-01-07T22:50:40.210Z,9.00
2023-01-07T22:53:09.136Z,9.07
2023-01-07T22:55:36.796Z,10.38
2023-01-07T22:58:05.029Z,11.27
2023-01-07T23:00:50.770Z,11.80
2023-01-07T23:03:21.655Z,11.20
2023-01-07T23:05:48.989Z,12.77
2023-01-07T23:08:15.957Z,11.70
2023-01-07T23:10:42.992Z,12.73
2023-01-07T23:13:10.558Z,11.30
2023-01-07T23:15:38.976Z,9.90
2023-01-07T23:18:06.859Z,10.85
2023-01-07T23:20:37.489Z,10.93
2023-01-07T23:23:04.489Z,10.10
2023-01-07T23:25:31.324Z,9.60
2023-01-07T23:27:58.153Z,9.95
2023-01-07T23:30:24.943Z,10.18
2023-01-07T23:32:51.765Z,10.07
2023-01-07T23:35:18.520Z,10.35
2023-01-07T23:37:45.468Z,9.98
2023-01-07T23:40:13.079Z,10.38
2023-01-07T23:42:39.857Z,10.02
2023-01-07T23:45:07.373Z,11.18
2023-01-07T23:47:34.615Z,10.88
2023-01-07T23:50:01.416Z,11.40
2023-01-07T23:52:28.203Z,10.73
2023-01-07T23:54:55.005Z,10.32
2023-01-07T23:57:21.708Z,15.55
2023-01-07T23:59:49.102Z,15.50
